createdAt,value
2019-02-19T00:01:33.092Z,56.44
2019-02-19T00:03:59.621Z,56.24
2019-02-19T00:06:26.145Z,56.18
2019-02-19T00:08:52.955Z,56.15
2019-02-19T00:11:19.535Z,56.10
2019-02-19T00:13:46.018Z,55.84
2019-02-19T00:16:12.497Z,54.78
2019-02-19T00:18:39.025Z,53.80
2019-02-19T00:21:05.781Z,53.32
2019-02-19T00:23:32.661Z,53.14
2019-02-19T00:25:59.189Z,53.48
2019-02-19T00:28:25.685Z,53.00
2019-02-19T00:30:52.522Z,53.06
2019-02-19T00:33:19.032Z,53.31
2019-02-19T00:35:45.531Z,53.47
2019-02-19T00:38:12.404Z,53.56
2019-02-19T00:40:38.880Z,52.99
2019-02-19T00:43:05.479Z,52.46
2019-02-19T00:45:32.127Z,51.72
2019-02-19T00:48:03.231Z,52.38
2019-02-19T00:50:29.761Z,51.76
2019-02-19T00:52:56.286Z,51.22
2019-02-19T00:55:22.759Z,51.24
2019-02-19T00:57:49.337Z,51.16
2019-02-19T01:00:16.058Z,51.66
2019-02-19T01:02:42.528Z,51.59
2019-02-19T01:05:09.093Z,51.43
2019-02-19T01:07:35.726Z,51.55
2019-02-19T01:10:02.306Z,50.74
2019-02-19T01:12:28.862Z,50.72
2019-02-19T01:14:55.457Z,51.34
2019-02-19T01:17:22.015Z,51.09
2019-02-19T01:19:48.845Z,51.78
2019-02-19T01:22:15.746Z,51.84
2019-02-19T01:24:42.591Z,52.04
2019-02-19T01:27:09.201Z,52.35
2019-02-19T01:29:35.691Z,52.68
2019-02-19T01:32:02.203Z,52.81
2019-02-19T01:34:28.767Z,53.08
2019-02-19T01:36:55.271Z,53.68
2019-02-19T01:39:21.916Z,54.12
2019-02-19T01:41:48.509Z,55.03
2019-02-19T01:44:15.157Z,55.76
2019-02-19T01:46:41.680Z,56.25
2019-02-19T01:49:08.199Z,56.85
2019-02-19T01:51:34.693Z,57.01
2019-02-19T01:54:01.258Z,57.26
2019-02-19T01:56:28.095Z,57.91
2019-02-19T01:58:54.994Z,58.00
2019-02-19T02:01:21.509Z,58.29
2019-02-19T02:03:48.065Z,58.33
2019-02-19T02:06:14.676Z,58.76
2019-02-19T02:08:41.248Z,58.38
2019-02-19T02:11:08.875Z,58.34
2019-02-19T02:13:37.719Z,58.49
2019-02-19T02:16:04.240Z,58.92
2019-02-19T02:18:31.306Z,59.05
2019-02-19T02:20:57.897Z,58.93
2019-02-19T02:23:24.395Z,59.06
2019-02-19T02:25:51.041Z,59.27
2019-02-19T02:28:17.853Z,59.52
2019-02-19T02:30:44.405Z,59.47
2019-02-19T02:33:10.867Z,59.68
2019-02-19T02:35:37.538Z,59.89
2019-02-19T02:38:04.088Z,60.07
2019-02-19T02:40:30.914Z,60.02
2019-02-19T02:43:00.221Z,60.23
2019-02-19T02:45:26.816Z,60.19
2019-02-19T02:47:53.695Z,59.99
2019-02-19T02:50:20.222Z,60.09
2019-02-19T02:52:47.003Z,60.01
2019-02-19T02:55:13.736Z,60.00
2019-02-19T02:57:40.263Z,60.11
2019-02-19T03:00:07.609Z,60.00
2019-02-19T03:02:34.089Z,60.51
2019-02-19T03:05:00.583Z,60.87
2019-02-19T03:07:55.892Z,61.11
2019-02-19T03:10:22.872Z,61.84
2019-02-19T03:12:49.451Z,62.05
2019-02-19T03:15:18.981Z,61.84
2019-02-19T03:17:46.399Z,62.18
2019-02-19T03:20:16.424Z,62.46
2019-02-19T03:22:42.992Z,62.67
2019-02-19T03:25:09.532Z,62.54
2019-02-19T03:27:36.019Z,62.25
2019-02-19T03:30:03.077Z,62.16
2019-02-19T03:32:29.695Z,61.47
2019-02-19T03:34:56.339Z,60.68
2019-02-19T03:37:30.981Z,60.63
2019-02-19T03:39:57.533Z,60.73
2019-02-19T03:42:24.048Z,60.53
2019-02-19T03:44:50.575Z,60.14
2019-02-19T03:47:19.876Z,59.94
2019-02-19T03:49:46.536Z,59.91
2019-02-19T03:52:13.054Z,59.86
2019-02-19T03:54:39.544Z,59.88
2019-02-19T03:57:06.471Z,59.65
2019-02-19T03:59:33.028Z,59.64
2019-02-19T04:01:59.623Z,59.72
2019-02-19T04:04:26.572Z,59.41
2019-02-19T04:06:53.103Z,59.62
2019-02-19T04:09:19.622Z,59.33
2019-02-19T04:11:47.217Z,59.41
2019-02-19T04:14:13.747Z,59.72
2019-02-19T04:16:40.269Z,59.81
2019-02-19T04:19:06.738Z,60.18
2019-02-19T04:21:33.391Z,60.15
2019-02-19T04:23:59.901Z,60.23
2019-02-19T04:26:26.426Z,60.21
2019-02-19T04:28:53.169Z,60.23
2019-02-19T04:31:19.715Z,60.07
2019-02-19T04:33:46.185Z,60.20
2019-02-19T04:36:12.713Z,60.28
2019-02-19T04:38:39.175Z,60.70
2019-02-19T04:41:05.746Z,60.37
2019-02-19T04:43:33.300Z,60.33
2019-02-19T04:45:59.843Z,60.01
2019-02-19T04:48:26.338Z,60.25
2019-02-19T04:50:52.821Z,60.62
2019-02-19T04:53:19.333Z,61.16
2019-02-19T04:55:46.191Z,61.46
2019-02-19T04:58:17.091Z,61.71
2019-02-19T05:00:44.860Z,62.09
2019-02-19T05:03:11.376Z,62.10
2019-02-19T05:05:37.867Z,62.83
2019-02-19T05:08:04.388Z,63.34
2019-02-19T05:10:31.270Z,63.46
2019-02-19T05:12:57.782Z,63.40
2019-02-19T05:15:47.805Z,63.33
2019-02-19T05:18:14.297Z,63.52
2019-02-19T05:20:40.823Z,64.02
2019-02-19T05:23:07.568Z,64.66
2019-02-19T05:25:34.356Z,65.02
2019-02-19T05:28:01.351Z,65.51
2019-02-19T05:30:28.211Z,65.67
2019-02-19T05:32:57.129Z,65.83
2019-02-19T05:35:23.624Z,66.07
2019-02-19T05:37:50.300Z,66.01
2019-02-19T05:40:16.836Z,66.03
2019-02-19T05:42:43.349Z,65.83
2019-02-19T05:45:09.957Z,65.60
2019-02-19T05:47:36.457Z,65.66
2019-02-19T05:50:04.097Z,65.60
2019-02-19T05:52:33.675Z,65.26
2019-02-19T05:55:00.341Z,64.78
2019-02-19T05:57:26.832Z,64.47
2019-02-19T05:59:58.518Z,64.32
2019-02-19T06:02:28.045Z,64.26
2019-02-19T06:04:56.543Z,64.14
2019-02-19T06:07:23.558Z,63.60
2019-02-19T06:09:50.106Z,63.07
2019-02-19T06:12:16.674Z,62.52
2019-02-19T06:14:43.504Z,62.11
2019-02-19T06:17:10.009Z,61.71
2019-02-19T06:19:36.791Z,61.39
2019-02-19T06:22:04.159Z,61.34
2019-02-19T06:24:31.119Z,61.30
2019-02-19T06:26:58.650Z,61.35
2019-02-19T06:29:25.191Z,61.28
2019-02-19T06:31:51.825Z,61.39
2019-02-19T06:34:19.238Z,61.46
2019-02-19T06:36:47.297Z,61.59
2019-02-19T06:39:20.728Z,61.68
2019-02-19T06:41:47.876Z,61.73
2019-02-19T06:44:14.811Z,61.80
2019-02-19T06:46:42.380Z,61.87
2019-02-19T06:49:09.304Z,62.04
2019-02-19T06:51:35.947Z,62.11
2019-02-19T06:54:05.201Z,62.09
2019-02-19T06:56:34.387Z,61.96
2019-02-19T06:59:04.747Z,61.81
2019-02-19T07:02:03.070Z,61.66
2019-02-19T07:04:35.123Z,61.46
2019-02-19T07:07:01.861Z,61.50
2019-02-19T07:09:28.591Z,61.01
2019-02-19T07:11:55.598Z,60.46
2019-02-19T07:14:23.070Z,60.63
2019-02-19T07:16:52.445Z,60.35
2019-02-19T07:19:20.187Z,60.34
2019-02-19T07:21:48.190Z,60.36
2019-02-19T07:24:15.434Z,60.67
2019-02-19T07:26:42.035Z,60.79
2019-02-19T07:29:08.794Z,60.94
2019-02-19T07:31:35.420Z,61.26
2019-02-19T07:34:02.921Z,61.91
2019-02-19T07:36:29.464Z,61.77
2019-02-19T07:38:56.414Z,61.90
2019-02-19T07:41:25.600Z,61.99
2019-02-19T07:43:52.142Z,62.38
2019-02-19T07:46:19.137Z,61.93
2019-02-19T07:48:46.730Z,62.02
2019-02-19T07:51:17.332Z,62.29
2019-02-19T07:53:44.019Z,62.11
2019-02-19T07:56:18.005Z,61.96
2019-02-19T07:58:44.796Z,61.64
2019-02-19T08:01:11.837Z,61.22
2019-02-19T08:03:45.068Z,61.36
2019-02-19T08:06:11.762Z,61.02
2019-02-19T08:08:41.513Z,61.06
2019-02-19T08:11:08.937Z,61.31
2019-02-19T08:13:42.027Z,61.01
2019-02-19T08:16:08.437Z,61.42
2019-02-19T08:18:35.849Z,60.96
2019-02-19T08:21:02.782Z,61.11
2019-02-19T08:23:30.070Z,61.09
2019-02-19T08:25:57.747Z,60.95
2019-02-19T08:28:25.064Z,61.00
2019-02-19T08:30:52.533Z,61.15
2019-02-19T08:33:26.613Z,61.03
2019-02-19T08:35:55.936Z,61.02
2019-02-19T08:38:24.850Z,61.02
2019-02-19T08:40:51.689Z,61.05
2019-02-19T08:43:18.311Z,60.95
2019-02-19T08:45:44.994Z,60.95
2019-02-19T08:48:11.826Z,61.12
2019-02-19T08:50:38.638Z,61.15
2019-02-19T08:53:05.451Z,61.03
2019-02-19T08:58:00.031Z,60.91
2019-02-19T09:00:26.862Z,61.19
2019-02-19T09:02:59.633Z,61.36
2019-02-19T09:05:26.243Z,61.15
2019-02-19T09:07:52.776Z,60.99
2019-02-19T09:10:19.694Z,60.89
2019-02-19T09:12:46.504Z,61.08
2019-02-19T09:15:25.890Z,60.74
2019-02-19T09:18:01.098Z,60.77
2019-02-19T09:20:34.684Z,60.11
2019-02-19T09:23:01.384Z,60.21
2019-02-19T09:25:27.926Z,60.50
2019-02-19T09:27:54.765Z,60.37
2019-02-19T09:30:21.917Z,60.42
2019-02-19T09:32:48.742Z,60.25
2019-02-19T09:35:15.521Z,60.57
2019-02-19T09:37:42.577Z,60.56
2019-02-19T09:40:09.608Z,61.01
2019-02-19T09:42:36.220Z,61.41
2019-02-19T09:45:03.163Z,61.66
2019-02-19T09:47:29.829Z,62.16
2019-02-19T09:49:56.352Z,62.32
2019-02-19T09:52:24.777Z,62.60
2019-02-19T09:54:51.637Z,63.01
2019-02-19T09:57:18.468Z,63.00
2019-02-19T09:59:45.220Z,63.11
2019-02-19T10:02:11.776Z,63.11
2019-02-19T10:04:38.726Z,62.81
2019-02-19T10:07:05.602Z,62.53
2019-02-19T10:09:32.580Z,63.33
2019-02-19T10:11:59.792Z,63.41
2019-02-19T10:14:26.364Z,63.72
2019-02-19T10:16:53.036Z,64.49
2019-02-19T10:19:19.627Z,64.88
2019-02-19T10:21:46.509Z,65.52
2019-02-19T10:24:13.670Z,65.84
2019-02-19T10:26:40.789Z,67.06
2019-02-19T10:29:09.292Z,67.37
2019-02-19T10:31:35.856Z,68.02
2019-02-19T10:34:02.723Z,68.56
2019-02-19T10:36:29.547Z,68.74
2019-02-19T10:38:56.361Z,69.76
2019-02-19T10:41:24.232Z,70.58
2019-02-19T10:43:50.872Z,70.87
2019-02-19T10:46:17.430Z,71.57
2019-02-19T10:48:44.188Z,71.28
2019-02-19T10:51:11.053Z,71.70
2019-02-19T10:53:37.856Z,72.54
2019-02-19T10:56:04.553Z,72.49
2019-02-19T10:58:31.239Z,72.83
2019-02-19T11:00:58.264Z,73.44
2019-02-19T11:03:24.983Z,73.79
2019-02-19T11:05:51.840Z,74.27
2019-02-19T11:08:18.504Z,73.71
2019-02-19T11:10:45.190Z,73.96
2019-02-19T11:13:12.847Z,73.30
2019-02-19T11:15:39.473Z,73.19
2019-02-19T11:18:06.145Z,73.25
2019-02-19T11:20:32.692Z,73.02
2019-02-19T11:22:59.285Z,73.29
2019-02-19T11:25:26.362Z,72.79
2019-02-19T11:27:53.183Z,72.70
2019-02-19T11:30:20.615Z,72.45
2019-02-19T11:32:47.427Z,71.81
2019-02-19T11:35:14.076Z,72.07
2019-02-19T11:37:41.356Z,71.99
2019-02-19T11:40:09.880Z,71.87
2019-02-19T11:42:36.720Z,71.66
2019-02-19T11:45:03.647Z,71.40
2019-02-19T11:47:30.503Z,71.25
2019-02-19T11:49:58.297Z,70.80
2019-02-19T11:52:25.274Z,70.62
2019-02-19T11:54:51.964Z,70.45
2019-02-19T11:57:18.483Z,70.11
2019-02-19T11:59:46.463Z,69.83
2019-02-19T12:02:14.858Z,69.13
2019-02-19T12:04:41.435Z,69.19
2019-02-19T12:07:08.200Z,68.85
2019-02-19T12:09:34.934Z,68.62
2019-02-19T12:12:01.836Z,68.07
2019-02-19T12:14:28.570Z,67.91
2019-02-19T12:16:55.275Z,67.62
2019-02-19T12:19:21.809Z,67.78
2019-02-19T12:21:48.655Z,67.24
2019-02-19T12:24:17.354Z,66.78
2019-02-19T12:26:43.917Z,66.27
2019-02-19T12:29:10.545Z,66.52
2019-02-19T12:31:37.490Z,66.05
2019-02-19T12:34:04.037Z,65.56
2019-02-19T12:36:30.646Z,65.99
2019-02-19T12:38:57.292Z,65.78
2019-02-19T12:41:24.170Z,65.97
2019-02-19T12:43:51.092Z,65.63
2019-02-19T12:46:21.900Z,65.60
2019-02-19T12:48:54.421Z,65.26
2019-02-19T12:51:17.165Z,64.94
2019-02-19T12:53:43.690Z,64.86
2019-02-19T12:56:10.317Z,64.28
2019-02-19T12:58:36.982Z,64.07
2019-02-19T13:01:04.525Z,64.57
2019-02-19T13:03:31.354Z,65.23
2019-02-19T13:05:58.137Z,65.26
2019-02-19T13:08:24.677Z,65.42
2019-02-19T13:10:51.735Z,65.92
2019-02-19T13:13:18.297Z,65.70
2019-02-19T13:15:45.484Z,65.56
2019-02-19T13:18:12.004Z,64.78
2019-02-19T13:20:38.587Z,63.55
2019-02-19T13:23:05.190Z,62.11
2019-02-19T13:25:31.732Z,60.51
2019-02-19T13:27:58.627Z,60.37
2019-02-19T13:30:25.223Z,60.56
2019-02-19T13:32:55.204Z,59.94
2019-02-19T13:35:23.989Z,61.33
2019-02-19T13:37:50.946Z,61.31
2019-02-19T13:40:17.797Z,60.54
2019-02-19T13:42:45.023Z,59.37
2019-02-19T13:45:13.877Z,58.51
2019-02-19T13:47:43.080Z,58.80
2019-02-19T13:50:12.354Z,58.85
2019-02-19T13:52:52.962Z,59.54
2019-02-19T13:55:22.951Z,60.26
2019-02-19T13:57:49.571Z,61.06
2019-02-19T14:00:19.900Z,61.12
2019-02-19T14:02:47.892Z,59.94
2019-02-19T14:05:14.966Z,59.94
2019-02-19T14:07:42.275Z,60.32
2019-02-19T14:10:09.106Z,59.77
2019-02-19T14:12:35.753Z,58.94
2019-02-19T14:15:18.156Z,58.06
2019-02-19T14:17:45.065Z,57.81
2019-02-19T14:20:21.031Z,57.56
2019-02-19T14:23:00.940Z,57.57
2019-02-19T14:25:49.942Z,57.95
2019-02-19T14:28:42.337Z,57.92
2019-02-19T14:31:24.306Z,57.47
2019-02-19T14:34:19.445Z,56.67
2019-02-19T14:37:12.789Z,56.94
2019-02-19T14:40:15.622Z,57.35
2019-02-19T14:43:14.484Z,56.86
2019-02-19T14:46:00.723Z,57.08
2019-02-19T14:48:50.784Z,56.53
2019-02-19T14:51:37.037Z,56.24
2019-02-19T14:54:38.528Z,55.81
2019-02-19T14:57:15.545Z,57.40
2019-02-19T14:59:52.585Z,57.78
2019-02-19T15:02:41.677Z,57.36
2019-02-19T15:05:26.736Z,57.86
2019-02-19T15:08:16.658Z,58.29
2019-02-19T15:11:01.588Z,59.06
2019-02-19T15:13:48.019Z,60.32
2019-02-19T15:16:43.573Z,61.19
2019-02-19T15:19:22.595Z,61.37
2019-02-19T15:22:02.857Z,62.08
2019-02-19T15:24:47.767Z,62.24
2019-02-19T15:27:34.018Z,62.42
2019-02-19T15:30:31.845Z,62.43
2019-02-19T15:33:13.613Z,62.83
2019-02-19T15:35:50.017Z,63.09
2019-02-19T15:38:35.794Z,63.30
2019-02-19T15:41:34.351Z,63.38
2019-02-19T15:44:11.532Z,63.36
2019-02-19T15:46:59.711Z,63.50
2019-02-19T15:49:47.905Z,63.64
2019-02-19T15:52:36.548Z,63.40
2019-02-19T15:55:21.512Z,63.72
2019-02-19T15:58:06.318Z,63.62
2019-02-19T16:01:04.653Z,63.78
2019-02-19T16:03:40.271Z,63.85
2019-02-19T16:06:31.983Z,64.19
2019-02-19T16:09:07.558Z,64.61
2019-02-19T16:11:41.815Z,64.36
2019-02-19T16:14:16.860Z,64.50
2019-02-19T16:17:06.388Z,64.69
2019-02-19T16:20:01.342Z,65.29
2019-02-19T16:22:50.689Z,65.91
2019-02-19T16:25:35.580Z,66.42
2019-02-19T16:28:30.852Z,67.02
2019-02-19T16:31:03.754Z,67.30
2019-02-19T16:33:47.193Z,67.47
2019-02-19T16:36:32.237Z,67.80
2019-02-19T16:39:10.559Z,68.03
2019-02-19T16:41:49.488Z,68.53
2019-02-19T16:44:22.991Z,68.68
2019-02-19T16:47:08.236Z,68.87
2019-02-19T16:50:06.919Z,68.75
2019-02-19T16:52:30.305Z,69.19
2019-02-19T16:55:05.452Z,69.21
2019-02-19T16:57:43.438Z,69.49
2019-02-19T17:00:24.458Z,69.67
2019-02-19T17:03:02.516Z,69.52
2019-02-19T17:05:51.512Z,69.65
2019-02-19T17:08:52.594Z,69.59
2019-02-19T17:11:24.794Z,69.77
2019-02-19T17:14:04.736Z,69.35
2019-02-19T17:16:47.890Z,69.34
2019-02-19T17:19:40.098Z,69.13
2019-02-19T17:22:25.120Z,69.09
2019-02-19T17:25:00.823Z,69.10
2019-02-19T17:27:46.615Z,69.07
2019-02-19T17:30:31.474Z,69.07
2019-02-19T17:33:32.891Z,69.18
2019-02-19T17:36:24.856Z,69.27
2019-02-19T17:39:05.534Z,69.20
2019-02-19T17:41:40.921Z,69.43
2019-02-19T17:44:16.870Z,69.73
2019-02-19T17:46:53.797Z,69.50
2019-02-19T17:49:38.254Z,69.84
2019-02-19T17:52:27.901Z,69.95
2019-02-19T17:55:01.382Z,69.98
2019-02-19T17:57:48.384Z,69.84
2019-02-19T18:00:22.972Z,69.93
2019-02-19T18:02:57.718Z,70.08
2019-02-19T18:05:46.702Z,70.13
2019-02-19T18:08:33.218Z,70.43
2019-02-19T18:11:19.882Z,70.52
2019-02-19T18:13:51.699Z,70.33
2019-02-19T18:16:36.493Z,70.57
2019-02-19T18:19:03.028Z,70.68
2019-02-19T18:21:29.550Z,70.84
2019-02-19T18:23:56.142Z,70.91
2019-02-19T18:26:22.693Z,71.07
2019-02-19T18:28:50.264Z,71.18
2019-02-19T18:31:16.839Z,71.52
2019-02-19T18:33:43.597Z,71.71
2019-02-19T18:36:10.089Z,71.86
2019-02-19T18:38:36.744Z,71.94
2019-02-19T18:41:03.782Z,72.04
2019-02-19T18:43:30.273Z,72.04
2019-02-19T18:45:56.802Z,71.87
2019-02-19T18:48:24.055Z,71.81
2019-02-19T18:50:58.138Z,71.82
2019-02-19T18:53:20.389Z,71.82
2019-02-19T18:55:48.056Z,71.93
2019-02-19T18:58:22.894Z,72.13
2019-02-19T19:00:50.008Z,72.08
2019-02-19T19:03:16.648Z,72.20
2019-02-19T19:05:43.564Z,72.45
2019-02-19T19:08:12.145Z,72.57
2019-02-19T19:10:50.433Z,72.94
2019-02-19T19:13:17.850Z,73.22
2019-02-19T19:15:45.575Z,73.56
2019-02-19T19:18:12.117Z,73.71
2019-02-19T19:20:38.692Z,73.87
2019-02-19T19:23:05.369Z,74.49
2019-02-19T19:25:32.281Z,74.99
2019-02-19T19:27:59.082Z,75.13
2019-02-19T19:30:25.597Z,75.51
2019-02-19T19:32:54.329Z,75.73
2019-02-19T19:35:20.970Z,76.00
2019-02-19T19:37:47.586Z,76.24
2019-02-19T19:40:14.665Z,76.41
2019-02-19T19:42:41.524Z,76.56
2019-02-19T19:45:08.463Z,76.91
2019-02-19T19:47:34.961Z,77.02
2019-02-19T19:50:03.350Z,77.14
2019-02-19T19:52:30.453Z,77.32
2019-02-19T19:54:57.800Z,77.58
2019-02-19T19:57:24.394Z,77.90
2019-02-19T19:59:50.978Z,78.03
2019-02-19T20:02:19.955Z,77.99
2019-02-19T20:04:46.530Z,77.74
2019-02-19T20:07:13.078Z,77.74
2019-02-19T20:09:39.654Z,77.60
2019-02-19T20:12:06.616Z,77.76
2019-02-19T20:14:33.209Z,77.44
2019-02-19T20:16:59.857Z,77.40
2019-02-19T20:19:26.591Z,77.75
2019-02-19T20:21:53.400Z,77.70
2019-02-19T20:24:20.015Z,77.86
2019-02-19T20:26:46.761Z,78.14
2019-02-19T20:29:13.504Z,78.23
2019-02-19T20:31:40.057Z,78.28
2019-02-19T20:34:06.790Z,78.28
2019-02-19T20:36:33.396Z,78.41
2019-02-19T20:39:00.046Z,78.45
2019-02-19T20:41:26.772Z,78.56
2019-02-19T20:43:53.387Z,78.50
2019-02-19T20:46:20.086Z,78.46
2019-02-19T20:48:47.186Z,78.29
2019-02-19T20:51:13.820Z,78.27
2019-02-19T20:53:40.632Z,78.34
2019-02-19T20:56:07.150Z,78.24
2019-02-19T20:58:35.464Z,78.09
2019-02-19T21:01:02.579Z,78.08
2019-02-19T21:03:29.678Z,78.13
2019-02-19T21:05:56.189Z,78.02
2019-02-19T21:08:22.799Z,77.60
2019-02-19T21:10:49.430Z,77.41
2019-02-19T21:13:17.030Z,77.25
2019-02-19T21:15:43.601Z,76.76
2019-02-19T21:18:10.182Z,76.62
2019-02-19T21:20:38.858Z,76.47
2019-02-19T21:23:05.473Z,76.50
2019-02-19T21:25:32.075Z,76.57
2019-02-19T21:27:58.720Z,76.62
2019-02-19T21:30:25.504Z,76.72
2019-02-19T21:32:52.041Z,76.70
2019-02-19T21:35:18.857Z,76.67
2019-02-19T21:37:45.536Z,76.26
2019-02-19T21:40:16.009Z,75.96
2019-02-19T21:42:42.500Z,76.06
2019-02-19T21:45:09.134Z,76.25
2019-02-19T21:47:35.665Z,76.33
2019-02-19T21:50:02.530Z,76.13
2019-02-19T21:52:29.066Z,76.02
2019-02-19T21:54:55.659Z,75.98
2019-02-19T21:57:22.186Z,75.73
2019-02-19T21:59:48.762Z,75.44
2019-02-19T22:02:16.578Z,75.08
2019-02-19T22:04:43.225Z,75.03
2019-02-19T22:07:09.696Z,75.12
2019-02-19T22:09:36.222Z,75.20
2019-02-19T22:12:03.101Z,75.32
2019-02-19T22:14:29.630Z,75.16
2019-02-19T22:16:58.465Z,75.11
2019-02-19T22:19:24.948Z,74.93
2019-02-19T22:22:03.209Z,75.41
2019-02-19T22:24:34.332Z,75.57
2019-02-19T22:27:01.211Z,75.53
2019-02-19T22:29:28.008Z,75.61
2019-02-19T22:31:54.462Z,75.47
2019-02-19T22:34:20.992Z,75.34
2019-02-19T22:36:47.544Z,75.50
2019-02-19T22:39:14.048Z,75.82
2019-02-19T22:41:40.552Z,75.97
2019-02-19T22:44:07.063Z,76.36
2019-02-19T22:46:33.595Z,76.67
2019-02-19T22:49:00.068Z,76.90
2019-02-19T22:51:26.574Z,77.06
2019-02-19T22:54:00.312Z,77.00
2019-02-19T22:56:32.579Z,77.05
2019-02-19T22:58:59.226Z,76.77
2019-02-19T23:01:38.682Z,76.65
2019-02-19T23:04:05.163Z,76.68
2019-02-19T23:06:37.633Z,76.61
2019-02-19T23:09:05.315Z,76.41
2019-02-19T23:11:31.943Z,76.22
2019-02-19T23:13:58.628Z,75.96
2019-02-19T23:16:25.145Z,75.50
2019-02-19T23:18:51.636Z,75.15
2019-02-19T23:21:18.389Z,74.70
2019-02-19T23:23:44.936Z,74.29
2019-02-19T23:26:11.372Z,73.84
2019-02-19T23:28:37.833Z,73.34
2019-02-19T23:31:04.430Z,73.08
2019-02-19T23:33:30.867Z,72.57
2019-02-19T23:36:03.916Z,72.43
2019-02-19T23:38:30.432Z,72.16
2019-02-19T23:40:56.934Z,72.12
2019-02-19T23:43:23.870Z,71.83
2019-02-19T23:45:50.807Z,71.82
2019-02-19T23:48:17.271Z,71.82
2019-02-19T23:50:43.787Z,71.90
2019-02-19T23:53:10.793Z,72.20
2019-02-19T23:55:37.466Z,72.13
2019-02-19T23:58:03.922Z,72.17
